Mountain Village, Alaska
Current Conditions -  °F | °C
As of 7:04 AM on Friday 24 Oct 2014 (Local Time) from PAMO Reporting Station
Moderate Fog Moderate Fog  
Wind Chill: 19°   Ceiling: 100
Heat Index: 27°   Visibility: 0mi
Dew Point: 27°   Wind: 7mph
Humidity: 100%   Direction: 200°SSW
Pressure: 29.88"   Gusts: NA
Location:  62.09°N, 163.73°W
Report Text: PAMO 241504Z AUTO 20006KT M1/4SM FZFG OVC001 M03/M03 A2988 RMK AO2 TSNO $
Loading
Personal Weather Stations






























Interactive Weather Map
Tropical Storm Tracking
New forecast layout! Learn more

10-Day Weather Forecast

Advertisements
Track Severe Weather on mobile